Time;durP1;ratioP1;P1;durP2;ratioP2;P2;SDS_P1;SDS_P2;PMS_P1;PMS_P2;Temp;Humidity;BMP_temperature;BMP_pressure;BME280_temperature;BME280_humidity;BME280_pressure;Samples;Min_cycle;Max_cycle;Signal;HPM_P1;HPM_P2
2022/06/07 00:01:06;;;;;;;10.35;2.15;;;;;;;47.19;8.67;100204.09;5087050;28;20095;-66
2022/06/07 00:03:33;;;;;;;22.70;2.63;;;;;;;47.64;9.03;100204.59;5094967;28;20036;-67
2022/06/07 00:06:00;;;;;;;10.80;1.88;;;;;;;47.85;9.10;100199.19;5090809;28;20032;-66
2022/06/07 00:08:30;;;;;;;7.05;2.17;;;;;;;47.80;9.02;100189.28;5095641;28;20039;-66
2022/06/07 00:10:59;;;;;;;9.50;2.38;;;;;;;47.75;9.08;100197.94;5086084;28;20040;-67
2022/06/07 00:13:26;;;;;;;11.45;2.00;;;;;;;47.57;8.99;100193.66;5091738;28;20020;-66
2022/06/07 00:15:53;;;;;;;13.02;1.92;;;;;;;47.34;8.81;100190.13;5087598;28;20108;-66
2022/06/07 00:18:20;;;;;;;7.82;1.90;;;;;;;47.27;8.75;100193.59;5087930;28;20028;-66
2022/06/07 00:20:46;;;;;;;23.08;2.63;;;;;;;46.78;9.66;100181.81;5087565;28;20111;-66
2022/06/07 00:23:15;;;;;;;13.05;1.98;;;;;;;46.49;9.63;100193.94;5066660;28;20063;-66
2022/06/07 00:25:45;;;;;;;13.40;2.25;;;;;;;46.07;9.70;100188.00;5086017;28;20101;-67
2022/06/07 00:28:13;;;;;;;10.20;1.70;;;;;;;46.22;9.76;100187.72;5094738;28;20485;-67
2022/06/07 00:30:40;;;;;;;11.15;2.15;;;;;;;45.71;10.15;100178.34;5106710;28;20028;-67
2022/06/07 00:33:06;;;;;;;12.00;2.20;;;;;;;45.93;10.06;100176.75;5096108;28;20108;-67
2022/06/07 00:35:33;;;;;;;37.20;2.67;;;;;;;46.06;9.81;100174.16;5087012;28;20036;-66
2022/06/07 00:38:00;;;;;;;12.07;2.10;;;;;;;46.04;9.76;100171.81;5095422;28;20042;-66
2022/06/07 00:40:27;;;;;;;11.90;2.22;;;;;;;45.69;10.32;100177.31;5108372;28;20436;-66
2022/06/07 00:42:54;;;;;;;14.80;2.08;;;;;;;45.31;10.04;100179.63;5073750;28;20017;-67
2022/06/07 00:45:22;;;;;;;8.77;2.28;;;;;;;45.22;10.60;100176.16;5084136;28;20397;-67
2022/06/07 00:47:49;;;;;;;13.45;2.08;;;;;;;45.02;10.84;100169.34;5093414;28;20077;-66
2022/06/07 00:50:34;;;;;;;12.27;2.60;;;;;;;44.94;10.74;100167.53;5057445;28;20127;-67
2022/06/07 00:53:01;;;;;;;17.05;2.63;;;;;;;44.84;10.79;100167.72;5067733;28;20032;-68
2022/06/07 00:55:28;;;;;;;21.75;2.72;;;;;;;44.59;10.96;100172.31;5073062;28;20111;-68
2022/06/07 00:58:02;;;;;;;10.25;2.17;;;;;;;44.71;10.98;100170.28;5070532;28;20126;-68
2022/06/07 01:00:50;;;;;;;17.48;2.78;;;;;;;44.70;11.06;100173.66;5088997;28;20047;-68
2022/06/07 01:03:20;;;;;;;12.23;2.65;;;;;;;44.59;11.12;100166.59;5076808;28;20024;-68
2022/06/07 01:05:52;;;;;;;25.73;3.17;;;;;;;44.46;11.17;100171.97;5076200;28;20434;-69
2022/06/07 01:11:13;;;;;;;17.95;2.15;;;;;;;44.14;12.04;100174.13;5076684;28;20123;-68
2022/06/07 01:13:40;;;;;;;24.98;3.10;;;;;;;43.71;12.74;100179.00;5092192;28;20490;-68
2022/06/07 01:16:14;;;;;;;17.15;2.53;;;;;;;43.46;13.10;100165.50;5076244;28;20122;-68
2022/06/07 01:18:44;;;;;;;16.80;2.40;;;;;;;43.33;13.22;100172.41;5076867;28;20386;-69
2022/06/07 01:21:22;;;;;;;21.35;2.42;;;;;;;43.40;13.38;100180.50;5071234;28;20047;-68
2022/06/07 01:23:52;;;;;;;10.02;1.55;;;;;;;43.32;13.02;100172.91;5076744;28;20039;-70
2022/06/07 01:26:23;;;;;;;16.20;2.20;;;;;;;43.03;12.94;100179.59;5073905;28;20039;-70
2022/06/07 01:28:50;;;;;;;15.68;1.92;;;;;;;42.08;13.83;100181.94;5076490;28;20059;-70
2022/06/07 01:31:17;;;;;;;12.40;2.08;;;;;;;41.89;13.92;100172.78;5076403;28;20016;-68
2022/06/07 01:33:44;;;;;;;11.88;2.17;;;;;;;41.98;14.30;100176.81;5076312;28;20032;-68
2022/06/07 01:36:14;;;;;;;17.02;2.42;;;;;;;41.59;14.36;100176.94;5094428;28;20024;-67
2022/06/07 01:38:43;;;;;;;14.73;2.28;;;;;;;41.51;14.60;100176.53;5073903;28;20508;-68
2022/06/07 01:43:58;;;;;;;24.83;2.65;;;;;;;40.70;15.04;100181.66;5075642;28;20039;-69
2022/06/07 01:46:25;;;;;;;14.93;1.98;;;;;;;40.43;15.40;100183.44;5094478;28;20024;-67
2022/06/07 01:48:52;;;;;;;18.58;2.25;;;;;;;40.59;15.27;100176.53;5094465;28;20043;-67
2022/06/07 01:51:18;;;;;;;18.00;2.22;;;;;;;40.53;15.20;100183.34;5094321;28;20421;-66
2022/06/07 01:53:47;;;;;;;15.77;2.05;;;;;;;40.38;15.05;100181.19;5075942;28;20453;-66
2022/06/07 01:56:16;;;;;;;16.88;1.88;;;;;;;40.12;15.51;100185.78;5093941;28;20020;-68
2022/06/07 01:58:48;;;;;;;14.00;2.13;;;;;;;39.84;15.93;100185.88;5074703;28;20392;-68
2022/06/07 02:01:14;;;;;;;17.75;2.08;;;;;;;39.71;16.28;100190.97;5075685;28;20130;-68
2022/06/07 02:03:41;;;;;;;12.48;2.05;;;;;;;39.66;16.25;100194.47;5091464;28;20016;-67
2022/06/07 02:06:11;;;;;;;13.45;1.90;;;;;;;39.50;16.18;100194.78;5075894;28;20126;-68
2022/06/07 02:08:43;;;;;;;12.80;2.08;;;;;;;39.11;16.42;100202.25;5075785;28;20040;-67
2022/06/07 02:11:22;;;;;;;17.50;2.13;;;;;;;38.94;16.68;100198.91;5075823;28;20036;-68
2022/06/07 02:13:57;;;;;;;15.45;2.58;;;;;;;38.73;17.08;100203.47;5074965;28;20039;-68
2022/06/07 02:16:24;;;;;;;17.65;2.58;;;;;;;38.55;17.67;100201.38;5075681;28;20051;-68
2022/06/07 02:18:51;;;;;;;23.73;2.42;;;;;;;38.40;18.22;100211.75;5075946;28;20020;-68
2022/06/07 02:21:28;;;;;;;17.25;1.90;;;;;;;38.04;18.39;100206.69;5074023;28;20058;-69
2022/06/07 02:23:56;;;;;;;20.05;2.17;;;;;;;37.84;18.53;100198.56;5059147;28;20122;-68
2022/06/07 02:26:34;;;;;;;30.83;4.78;;;;;;;37.61;18.16;100197.00;5075297;28;20028;-67
2022/06/07 02:29:04;;;;;;;42.00;4.55;;;;;;;37.41;18.37;100211.53;5093618;28;20024;-68
2022/06/07 02:31:34;;;;;;;22.23;3.50;;;;;;;37.24;17.99;100206.47;5093582;28;20016;-68
2022/06/07 02:34:02;;;;;;;18.27;2.53;;;;;;;37.14;17.79;100220.56;5090830;28;20035;-67
2022/06/07 02:36:31;;;;;;;19.35;2.65;;;;;;;36.91;17.50;100213.28;5093293;28;20020;-68
2022/06/07 02:38:59;;;;;;;23.88;3.40;;;;;;;36.74;17.33;100211.06;5093670;28;20386;-67
2022/06/07 02:41:28;;;;;;;18.55;2.40;;;;;;;36.67;17.44;100217.75;5093437;28;20119;-67
2022/06/07 02:43:55;;;;;;;24.08;2.88;;;;;;;36.64;16.87;100215.84;5075058;28;20630;-68
2022/06/07 02:46:22;;;;;;;24.60;2.60;;;;;;;36.61;17.32;100222.41;5090765;28;20020;-69
2022/06/07 02:48:50;;;;;;;17.58;2.80;;;;;;;36.32;17.33;100228.22;5075293;28;20108;-66
2022/06/07 02:51:17;;;;;;;21.88;2.65;;;;;;;36.31;17.59;100221.78;5093086;28;20409;-68
2022/06/07 02:53:45;;;;;;;22.17;2.90;;;;;;;36.13;17.17;100232.84;5074958;28;20036;-69
2022/06/07 02:56:11;;;;;;;20.58;2.08;;;;;;;35.86;17.19;100232.47;5074474;28;20058;-68
2022/06/07 02:58:38;;;;;;;25.33;2.72;;;;;;;35.51;17.82;100231.44;5093473;28;20046;-70
2022/06/07 03:01:07;;;;;;;25.15;1.95;;;;;;;35.36;18.22;100248.00;5059927;28;20028;-70
2022/06/07 03:03:39;;;;;;;12.27;1.75;;;;;;;35.65;17.57;100248.78;5074689;28;20452;-68
2022/06/07 03:06:09;;;;;;;19.65;2.63;;;;;;;35.24;17.46;100240.28;5076739;28;20052;-69
2022/06/07 03:08:37;;;;;;;28.35;2.80;;;;;;;35.32;17.81;100252.94;5076763;28;20036;-68
2022/06/07 03:11:05;;;;;;;18.63;1.88;;;;;;;35.21;17.94;100241.16;5077662;28;20036;-68
2022/06/07 03:13:35;;;;;;;20.02;2.33;;;;;;;34.93;17.81;100257.63;5074117;28;20039;-68
2022/06/07 03:16:05;;;;;;;17.42;2.38;;;;;;;34.96;18.12;100259.56;5076455;28;20063;-69
2022/06/07 03:18:32;;;;;;;20.50;2.40;;;;;;;34.91;18.38;100254.44;5091679;28;20036;-68
2022/06/07 03:20:59;;;;;;;16.55;2.00;;;;;;;34.84;18.08;100263.09;5068991;28;20071;-69
2022/06/07 03:23:26;;;;;;;27.90;2.22;;;;;;;34.72;18.68;100266.59;5053699;28;20032;-68
2022/06/07 03:26:09;;;;;;;11.57;1.75;;;;;;;34.62;18.52;100264.84;5056321;28;20015;-68
2022/06/07 03:28:42;;;;;;;15.73;1.88;;;;;;;34.55;18.49;100268.63;5056071;28;20550;-69
2022/06/07 03:31:15;;;;;;;19.67;1.83;;;;;;;34.49;18.58;100271.19;5088788;28;20081;-69
2022/06/07 03:33:46;;;;;;;71.18;3.35;;;;;;;34.31;18.86;100273.63;5088275;28;20028;-70
2022/06/07 03:36:21;;;;;;;12.00;1.73;;;;;;;34.42;18.90;100279.81;5073828;28;20502;-67
2022/06/07 03:38:48;;;;;;;13.80;1.55;;;;;;;34.54;18.72;100283.97;5076121;28;20028;-68
2022/06/07 03:41:21;;;;;;;18.40;1.85;;;;;;;34.46;18.72;100297.44;5071674;28;20063;-67
2022/06/07 03:43:51;;;;;;;14.93;2.22;;;;;;;34.78;18.55;100293.06;5082484;28;20405;-67
2022/06/07 03:46:21;;;;;;;21.77;2.80;;;;;;;34.86;18.50;100300.16;5080057;28;20043;-67
2022/06/07 03:48:50;;;;;;;19.50;2.05;;;;;;;34.42;19.09;100298.78;5066400;28;20040;-69
2022/06/07 03:51:19;;;;;;;16.27;2.08;;;;;;;34.39;18.95;100306.09;5056822;28;20390;-69
2022/06/07 03:53:46;;;;;;;15.38;2.17;;;;;;;34.33;19.10;100310.66;5069207;28;20016;-69
2022/06/07 03:56:14;;;;;;;16.20;2.45;;;;;;;34.62;18.82;100318.47;5068260;28;20024;-68
2022/06/07 03:58:44;;;;;;;17.30;2.45;;;;;;;34.42;19.38;100313.69;5090381;28;20047;-67
2022/06/07 04:01:15;;;;;;;14.52;2.38;;;;;;;34.24;19.17;100316.06;5061766;28;20024;-68
2022/06/07 04:03:47;;;;;;;12.87;2.10;;;;;;;34.12;19.24;100314.75;5101473;28;20097;-67
2022/06/07 04:06:20;;;;;;;22.27;2.38;;;;;;;34.06;19.59;100310.03;5106518;28;20081;-70
2022/06/07 04:08:49;;;;;;;17.25;2.17;;;;;;;34.08;19.50;100311.19;5074291;28;20048;-68
2022/06/07 04:11:20;;;;;;;19.08;2.55;;;;;;;33.96;19.60;100319.53;5071005;28;20036;-67
2022/06/07 04:13:56;;;;;;;28.23;2.38;;;;;;;33.72;19.94;100322.38;5066582;28;20044;-70
2022/06/07 04:16:28;;;;;;;21.00;2.45;;;;;;;33.33;20.19;100335.19;5094875;28;20036;-66
2022/06/07 04:19:00;;;;;;;31.98;2.53;;;;;;;33.13;20.65;100327.88;5076581;28;20059;-66
2022/06/07 04:21:27;;;;;;;18.05;2.67;;;;;;;33.20;19.82;100327.75;5085337;28;20489;-65
2022/06/07 04:24:04;;;;;;;33.83;3.05;;;;;;;32.93;20.20;100348.31;5103424;28;20027;-67
2022/06/07 04:26:34;;;;;;;22.52;2.97;;;;;;;32.87;20.78;100346.41;5059726;28;20091;-66
2022/06/07 04:29:01;;;;;;;21.23;3.10;;;;;;;32.96;20.20;100352.28;5089141;28;20486;-66
2022/06/07 04:31:29;;;;;;;34.70;3.72;;;;;;;32.87;20.50;100354.88;5082365;28;20028;-66
2022/06/07 04:34:04;;;;;;;22.08;2.90;;;;;;;32.56;21.45;100356.91;5081648;28;20131;-66
2022/06/07 04:36:33;;;;;;;22.88;2.85;;;;;;;32.32;21.42;100356.03;5093689;28;20035;-66
2022/06/07 04:39:03;;;;;;;18.02;2.72;;;;;;;32.21;21.68;100358.16;5066199;28;20107;-66
2022/06/07 04:41:38;;;;;;;19.45;2.83;;;;;;;32.16;21.71;100360.22;5088821;28;20516;-65
2022/06/07 04:44:08;;;;;;;16.13;3.00;;;;;;;31.98;21.88;100370.88;5091343;28;20028;-66
2022/06/07 04:46:35;;;;;;;12.63;2.83;;;;;;;31.92;22.26;100361.31;5081561;28;20044;-66
2022/06/07 04:49:05;;;;;;;17.98;2.63;;;;;;;31.79;21.98;100361.06;5074645;28;20522;-66
2022/06/07 04:51:35;;;;;;;12.75;2.17;;;;;;;31.77;22.03;100373.91;5074642;28;20035;-66
2022/06/07 04:54:16;;;;;;;11.00;1.80;;;;;;;31.75;21.92;100365.09;5082898;28;20043;-66
2022/06/07 04:56:46;;;;;;;14.05;2.28;;;;;;;31.68;21.95;100370.78;5086629;28;20400;-66
2022/06/07 04:59:14;;;;;;;11.30;1.75;;;;;;;31.57;22.20;100363.25;5083389;28;20059;-66
2022/06/07 05:01:50;;;;;;;9.07;2.08;;;;;;;31.49;21.92;100372.97;5086429;28;20028;-66
2022/06/07 05:04:22;;;;;;;10.05;2.20;;;;;;;31.40;22.05;100364.22;5087741;28;20032;-66
2022/06/07 05:06:50;;;;;;;10.82;2.47;;;;;;;31.30;22.32;100365.13;5079609;28;20032;-66
2022/06/07 05:09:49;;;;;;;22.50;3.40;;;;;;;31.35;22.08;100367.50;5076203;28;20044;-66
2022/06/07 05:12:25;;;;;;;16.63;3.38;;;;;;;31.38;21.92;100369.47;5093145;28;20040;-67
2022/06/07 05:14:53;;;;;;;12.00;2.90;;;;;;;31.26;22.06;100372.81;5061137;28;20063;-66
2022/06/07 05:17:26;;;;;;;15.95;2.67;;;;;;;31.28;22.08;100384.41;5077469;28;20394;-66
2022/06/07 05:19:58;;;;;;;11.25;2.50;;;;;;;31.12;22.26;100392.53;5072893;28;20053;-65
2022/06/07 05:22:27;;;;;;;14.68;2.75;;;;;;;30.91;22.56;100393.50;5082087;28;20044;-67
2022/06/07 05:24:56;;;;;;;11.88;2.13;;;;;;;30.77;22.50;100397.19;5094122;28;20024;-66
2022/06/07 05:27:36;;;;;;;17.67;2.60;;;;;;;30.78;22.08;100398.78;5084900;28;20046;-67
2022/06/07 05:30:06;;;;;;;21.23;2.50;;;;;;;30.91;21.85;100397.09;5084754;28;20051;-67
2022/06/07 05:32:54;;;;;;;15.18;2.45;;;;;;;30.94;21.83;100407.50;5093949;28;20077;-65
2022/06/07 05:35:44;;;;;;;11.23;2.55;;;;;;;30.84;21.89;100402.75;5086927;28;20032;-64
2022/06/07 05:38:16;;;;;;;13.90;3.10;;;;;;;30.77;22.13;100396.38;5083324;28;20097;-65
2022/06/07 05:40:48;;;;;;;14.88;3.05;;;;;;;30.72;22.55;100389.22;5093847;28;20062;-67
2022/06/07 05:43:18;;;;;;;15.45;2.55;;;;;;;30.61;22.41;100397.66;5064312;28;20043;-66
2022/06/07 05:45:52;;;;;;;15.23;2.60;;;;;;;30.47;22.31;100394.09;5064098;28;20033;-65
2022/06/07 05:48:26;;;;;;;14.75;2.30;;;;;;;30.38;22.60;100391.75;5071833;28;20043;-66
2022/06/07 05:50:54;;;;;;;13.77;2.47;;;;;;;30.35;22.28;100396.19;5063075;28;20039;-65
2022/06/07 05:53:25;;;;;;;8.90;1.80;;;;;;;30.34;22.32;100397.41;5089931;28;20031;-66
2022/06/07 05:55:54;;;;;;;18.00;2.33;;;;;;;30.43;22.37;100391.31;5085048;28;20038;-65
2022/06/07 05:58:22;;;;;;;10.95;1.92;;;;;;;30.37;22.52;100396.56;5109980;28;20032;-67
2022/06/07 06:00:49;;;;;;;6.70;1.80;;;;;;;30.28;22.78;100401.81;5098088;28;20032;-66
2022/06/07 06:03:22;;;;;;;10.27;1.88;;;;;;;30.28;23.04;100399.00;5090190;28;20393;-67
2022/06/07 06:05:49;;;;;;;6.93;1.83;;;;;;;30.31;23.62;100403.78;5076332;28;20028;-65
2022/06/07 06:11:22;;;;;;;16.20;2.22;;;;;;;30.12;24.84;100400.66;5066190;28;20032;-65
2022/06/07 06:14:09;;;;;;;10.93;1.88;;;;;;;30.03;24.79;100401.06;5079883;28;20032;-65
2022/06/07 06:16:40;;;;;;;10.88;1.85;;;;;;;29.89;24.73;100406.72;5089347;28;20043;-66
2022/06/07 06:19:12;;;;;;;15.32;2.20;;;;;;;29.96;25.04;100399.06;5079517;28;20506;-67
2022/06/07 06:21:45;;;;;;;14.10;2.17;;;;;;;29.83;24.81;100416.75;5082895;28;20037;-66
2022/06/07 06:24:13;;;;;;;17.35;2.60;;;;;;;29.90;24.85;100406.31;5088254;28;20024;-67
2022/06/07 06:26:42;;;;;;;11.57;2.40;;;;;;;29.85;25.53;100403.13;5076143;28;20044;-66
2022/06/07 06:29:12;;;;;;;20.95;2.78;;;;;;;29.89;26.00;100417.91;5087885;28;20090;-65
2022/06/07 06:31:41;;;;;;;9.70;2.53;;;;;;;29.83;25.79;100406.34;5082053;28;20041;-67
2022/06/07 06:34:12;;;;;;;9.07;2.25;;;;;;;29.66;26.71;100416.38;5080356;28;20107;-65
2022/06/07 06:36:40;;;;;;;9.50;2.70;;;;;;;29.62;27.12;100411.94;5057278;28;20033;-64
2022/06/07 06:39:07;;;;;;;10.60;2.65;;;;;;;29.65;27.02;100417.56;5087954;28;20032;-65
2022/06/07 06:41:43;;;;;;;9.50;2.50;;;;;;;29.50;26.96;100413.19;5082083;28;20035;-65
2022/06/07 06:44:11;;;;;;;9.13;2.05;;;;;;;29.39;27.53;100418.75;5080194;28;20036;-67
2022/06/07 06:46:47;;;;;;;23.77;2.90;;;;;;;29.32;27.83;100412.34;5089121;28;20024;-66
2022/06/07 06:49:18;;;;;;;10.25;2.40;;;;;;;29.31;28.49;100413.56;5078478;28;20048;-66
2022/06/07 06:51:47;;;;;;;11.20;2.17;;;;;;;29.12;29.30;100412.75;5082313;28;20144;-65
2022/06/07 06:54:17;;;;;;;13.48;3.05;;;;;;;29.06;29.30;100405.94;5086718;28;20028;-65
2022/06/07 06:57:01;;;;;;;9.45;2.40;;;;;;;29.01;29.38;100403.53;5067940;28;20570;-66
2022/06/07 06:59:31;;;;;;;11.32;2.45;;;;;;;29.05;29.66;100395.94;5083642;28;20033;-65
2022/06/07 07:02:00;;;;;;;8.80;2.40;;;;;;;29.00;29.79;100404.72;5084285;28;20058;-65
2022/06/07 07:04:35;;;;;;;9.75;2.25;;;;;;;28.85;30.35;100405.88;5075134;28;20032;-66
2022/06/07 07:07:05;;;;;;;11.20;2.80;;;;;;;28.81;31.38;100408.66;5076571;28;20059;-66
2022/06/07 07:09:31;;;;;;;11.18;2.70;;;;;;;28.79;31.13;100410.25;5083840;28;20055;-64
2022/06/07 07:12:02;;;;;;;11.30;2.42;;;;;;;28.70;31.60;100412.63;5084282;28;20043;-66
2022/06/07 07:14:48;;;;;;;13.80;2.35;;;;;;;28.62;32.35;100411.81;5075437;28;20037;-65
2022/06/07 07:17:20;;;;;;;14.20;2.65;;;;;;;28.53;32.19;100406.56;5085657;28;20070;-65
2022/06/07 07:19:50;;;;;;;13.85;2.90;;;;;;;28.59;32.97;100413.41;5082502;28;20406;-65
2022/06/07 07:22:19;;;;;;;17.65;2.47;;;;;;;28.53;33.64;100403.78;5077136;28;20053;-65
2022/06/07 07:24:46;;;;;;;17.60;2.95;;;;;;;28.48;34.30;100418.16;5088557;28;20032;-65
2022/06/07 07:27:18;;;;;;;16.98;2.78;;;;;;;28.37;35.95;100420.13;5061345;28;20098;-67
2022/06/07 07:29:46;;;;;;;16.70;2.72;;;;;;;28.35;35.95;100416.91;5081962;28;20035;-66
2022/06/07 07:32:17;;;;;;;31.27;2.97;;;;;;;28.29;36.57;100412.88;5086181;28;20028;-67
2022/06/07 07:34:52;;;;;;;23.88;2.47;;;;;;;28.19;36.89;100419.22;5072648;28;20043;-68
2022/06/07 07:37:20;;;;;;;34.03;3.38;;;;;;;28.17;37.77;100415.97;5068245;28;20027;-67
2022/06/07 07:39:49;;;;;;;11.57;2.50;;;;;;;28.15;39.17;100413.59;5068670;28;20025;-66
2022/06/07 07:42:20;;;;;;;15.57;2.78;;;;;;;28.08;40.01;100410.75;5072554;28;20078;-64
2022/06/07 07:44:58;;;;;;;16.58;2.92;;;;;;;27.96;40.63;100408.28;5071358;28;20035;-64
2022/06/07 07:47:26;;;;;;;11.20;2.47;;;;;;;27.91;40.60;100405.88;5077859;28;20040;-66
2022/06/07 07:49:54;;;;;;;12.38;2.63;;;;;;;27.83;41.28;100413.44;5063709;28;20029;-65
2022/06/07 07:52:22;;;;;;;12.60;2.65;;;;;;;27.80;41.87;100408.59;5086555;28;20032;-67
2022/06/07 07:54:57;;;;;;;7.18;2.10;;;;;;;27.79;42.85;100404.19;5074935;28;20103;-67
2022/06/07 07:57:24;;;;;;;12.52;2.67;;;;;;;27.62;43.18;100402.06;5066592;28;20039;-67
2022/06/07 07:59:51;;;;;;;11.27;2.80;;;;;;;27.55;42.82;100408.41;5080257;28;20020;-64
2022/06/07 08:02:22;;;;;;;17.92;3.05;;;;;;;27.55;42.06;100415.97;5086217;28;20036;-65
2022/06/07 08:05:05;;;;;;;15.88;2.88;;;;;;;27.48;43.76;100421.53;5055782;28;20475;-65
2022/06/07 08:07:33;;;;;;;10.23;2.78;;;;;;;27.39;43.69;100414.25;5081450;28;20036;-65
2022/06/07 08:10:03;;;;;;;14.35;2.50;;;;;;;27.30;43.96;100413.81;5100185;28;20500;-65
2022/06/07 08:12:31;;;;;;;26.80;2.85;;;;;;;27.22;43.65;100412.13;5109237;28;20032;-66
2022/06/07 08:15:01;;;;;;;14.52;2.80;;;;;;;27.22;44.88;100419.69;5075891;28;20033;-65
2022/06/07 08:17:28;;;;;;;15.13;2.65;;;;;;;27.21;45.26;100423.66;5092501;28;20060;-65
2022/06/07 08:19:54;;;;;;;12.32;2.50;;;;;;;27.29;45.90;100425.31;5103914;28;20105;-65
2022/06/07 08:22:21;;;;;;;9.85;2.58;;;;;;;27.20;46.09;100422.06;5097727;28;20036;-65
2022/06/07 08:24:48;;;;;;;8.85;2.70;;;;;;;27.06;45.56;100422.72;5109316;28;20023;-65
2022/06/07 08:27:15;;;;;;;12.20;3.10;;;;;;;27.02;44.52;100427.47;5098159;28;20141;-65
2022/06/07 08:29:42;;;;;;;9.30;2.45;;;;;;;26.92;45.00;100428.13;5084775;28;20378;-65
2022/06/07 08:32:09;;;;;;;7.43;2.20;;;;;;;26.91;46.50;100429.31;5105803;28;20039;-65
2022/06/07 08:37:38;;;;;;;13.02;2.60;;;;;;;26.96;47.98;100434.56;5086511;28;20036;-66
2022/06/07 08:40:17;;;;;;;12.60;2.88;;;;;;;26.91;47.38;100435.69;5099811;28;20036;-66
2022/06/07 08:42:55;;;;;;;10.98;2.90;;;;;;;26.89;48.78;100435.28;5109191;28;20035;-66
2022/06/07 08:45:35;;;;;;;8.57;2.95;;;;;;;26.79;48.91;100435.97;5099073;28;20031;-65
2022/06/07 08:48:14;;;;;;;11.07;2.80;;;;;;;26.76;49.94;100434.75;5099607;28;20040;-66
2022/06/07 08:50:51;;;;;;;14.40;3.38;;;;;;;26.69;49.32;100431.06;5109049;28;20032;-65
2022/06/07 08:53:28;;;;;;;11.65;3.55;;;;;;;26.66;49.67;100427.06;5098797;28;20088;-64
2022/06/07 08:55:59;;;;;;;9.40;3.05;;;;;;;26.55;49.31;100430.91;5100472;28;20039;-65
2022/06/07 08:58:28;;;;;;;11.48;3.28;;;;;;;26.51;49.59;100430.88;5108267;28;20032;-65
2022/06/07 09:01:07;;;;;;;15.52;3.80;;;;;;;26.51;50.68;100444.81;5095151;28;20036;-65
2022/06/07 09:03:56;;;;;;;13.60;3.60;;;;;;;26.52;51.60;100451.19;5103706;28;20115;-65
2022/06/07 09:06:29;;;;;;;13.23;3.60;;;;;;;26.42;51.31;100438.72;5095611;28;20032;-65
2022/06/07 09:08:58;;;;;;;12.18;3.63;;;;;;;26.42;51.33;100444.31;5094046;28;20131;-64
2022/06/07 09:12:10;;;;;;;11.65;3.75;;;;;;;26.37;51.83;100448.19;5099423;28;20039;-65
2022/06/07 09:14:49;;;;;;;43.13;4.65;;;;;;;26.33;52.03;100440.97;5109728;28;20036;-65
2022/06/07 09:17:37;;;;;;;11.07;3.58;;;;;;;26.31;52.81;100444.13;5098386;28;20157;-65
2022/06/07 09:20:19;;;;;;;11.98;3.42;;;;;;;26.16;52.67;100440.34;5099511;28;20506;-65
2022/06/07 09:22:54;;;;;;;13.63;3.65;;;;;;;26.16;52.97;100445.91;5110146;28;20128;-65
2022/06/07 09:25:48;;;;;;;13.18;3.80;;;;;;;26.15;53.66;100444.31;5095574;28;20047;-65
2022/06/07 09:28:27;;;;;;;9.45;3.60;;;;;;;26.12;52.84;100442.28;5103794;28;20040;-65
2022/06/07 09:30:59;;;;;;;13.35;3.65;;;;;;;26.10;53.04;100439.06;5098955;28;20031;-65
2022/06/07 09:33:33;;;;;;;7.32;3.13;;;;;;;26.12;54.34;100447.84;5090180;28;20040;-65
2022/06/07 09:36:08;;;;;;;13.85;3.97;;;;;;;26.08;54.22;100447.00;5098987;28;20132;-65
2022/06/07 09:38:40;;;;;;;11.07;3.30;;;;;;;26.00;54.49;100445.28;5102780;28;20039;-65
2022/06/07 09:41:40;;;;;;;16.10;3.45;;;;;;;25.95;54.98;100448.41;5100158;28;20058;-64
2022/06/07 09:44:23;;;;;;;9.75;3.70;;;;;;;25.84;55.29;100453.00;5102040;28;20076;-65
2022/06/07 09:47:05;;;;;;;12.90;3.50;;;;;;;25.78;54.96;100443.38;5112081;28;20043;-65
2022/06/07 09:49:45;;;;;;;13.32;3.60;;;;;;;25.77;55.34;100450.13;5103458;28;20046;-65
2022/06/07 09:52:25;;;;;;;14.98;3.85;;;;;;;25.66;55.61;100451.88;5101508;28;20551;-65
2022/06/07 09:55:04;;;;;;;7.93;3.28;;;;;;;25.58;55.30;100449.00;5111857;28;20032;-65
2022/06/07 09:58:01;;;;;;;10.18;3.00;;;;;;;25.52;55.56;100450.50;5102992;28;20032;-65
2022/06/07 10:00:43;;;;;;;10.88;3.20;;;;;;;25.46;55.07;100449.19;5099017;28;20043;-67
2022/06/07 10:03:26;;;;;;;8.32;2.80;;;;;;;25.48;54.09;100446.84;5085206;28;20051;-65
2022/06/07 10:06:30;;;;;;;8.98;2.65;;;;;;;25.49;53.57;100454.00;5103629;28;20028;-65
2022/06/07 10:09:19;;;;;;;9.00;3.10;;;;;;;25.42;52.36;100441.97;5035369;28;20090;-65
2022/06/07 10:12:25;;;;;;;9.85;2.60;;;;;;;25.47;51.28;100456.34;5104076;28;20049;-65
2022/06/07 10:15:08;;;;;;;13.13;2.65;;;;;;;25.36;51.47;100455.38;5086522;28;20397;-64
2022/06/07 10:18:00;;;;;;;8.95;2.67;;;;;;;25.33;50.70;100460.91;5106120;28;20039;-65
2022/06/07 10:20:27;;;;;;;8.68;2.75;;;;;;;25.17;51.12;100453.47;5110769;28;20511;-65
2022/06/07 10:23:06;;;;;;;11.15;2.67;;;;;;;25.23;50.57;100453.97;5097904;28;20115;-65
2022/06/07 10:26:10;;;;;;;11.93;2.90;;;;;;;25.10;50.29;100458.09;5106251;28;20077;-65
2022/06/07 10:29:09;;;;;;;13.27;3.03;;;;;;;24.98;50.69;100457.06;5108212;28;20039;-65
2022/06/07 10:32:04;;;;;;;10.57;2.90;;;;;;;25.00;50.32;100468.66;5094551;28;20039;-65
2022/06/07 10:34:49;;;;;;;11.20;3.13;;;;;;;24.92;50.85;100464.09;5110723;28;20108;-65
2022/06/07 10:37:58;;;;;;;10.90;3.30;;;;;;;24.94;50.48;100467.28;5090174;28;20494;-65
2022/06/07 10:41:19;;;;;;;8.07;3.00;;;;;;;25.02;50.33;100467.47;5110027;28;20028;-68
2022/06/07 10:44:18;;;;;;;13.52;2.97;;;;;;;24.96;50.41;100476.09;5063505;28;20048;-65
2022/06/07 10:46:46;;;;;;;10.93;3.20;;;;;;;24.89;50.95;100475.13;5095544;28;20032;-65
2022/06/07 10:49:21;;;;;;;11.82;3.30;;;;;;;24.88;50.83;100467.97;5090449;28;20086;-66
2022/06/07 10:55:01;;;;;;;44.10;4.50;;;;;;;24.74;50.33;100468.50;5097206;28;20036;-65
2022/06/07 10:57:37;;;;;;;10.10;4.30;;;;;;;24.85;49.98;100474.28;5105978;28;20493;-64
2022/06/07 11:00:30;;;;;;;12.25;5.10;;;;;;;24.80;49.95;100478.16;5101227;28;20025;-64
2022/06/07 11:03:18;;;;;;;10.35;4.70;;;;;;;24.63;50.44;100478.59;5110454;28;20056;-64
2022/06/07 11:11:22;;;;;;;12.07;3.50;;;;;;;24.56;51.66;100478.44;5100450;28;20032;-64
2022/06/07 11:14:22;;;;;;;11.25;2.95;;;;;;;24.50;52.30;100479.91;5102816;28;20032;-64
2022/06/07 11:17:02;;;;;;;11.70;3.42;;;;;;;24.61;52.29;100489.28;5110195;28;20055;-65
2022/06/07 11:19:30;;;;;;;12.70;3.55;;;;;;;24.54;52.43;100492.69;5101235;28;20035;-64
2022/06/07 11:22:01;;;;;;;8.00;3.00;;;;;;;24.47;52.21;100486.19;5101810;28;20108;-64
2022/06/07 11:24:34;;;;;;;11.02;3.35;;;;;;;24.35;52.41;100490.72;5109664;28;20415;-64
2022/06/07 11:27:16;;;;;;;7.80;3.47;;;;;;;24.32;52.38;100485.09;5085330;28;21576;-65
2022/06/07 11:29:43;;;;;;;10.13;3.28;;;;;;;24.26;52.63;100480.97;5093035;28;20140;-65
2022/06/07 11:32:55;;;;;;;11.20;3.30;;;;;;;24.25;52.72;100488.47;5106747;28;20032;-64
2022/06/07 11:35:47;;;;;;;10.73;3.67;;;;;;;24.24;52.67;100495.22;5084918;28;20047;-64
2022/06/07 11:38:24;;;;;;;10.52;3.25;;;;;;;24.19;52.58;100498.25;5101139;28;20438;-65
2022/06/07 11:41:36;;;;;;;11.55;3.72;;;;;;;24.09;52.89;100504.38;5096729;28;20105;-65
2022/06/07 11:44:12;;;;;;;16.02;3.40;;;;;;;24.10;52.76;100504.00;5104059;28;20105;-65
2022/06/07 11:46:51;;;;;;;8.60;3.10;;;;;;;24.01;53.10;100505.38;5064583;28;20521;-65
2022/06/07 11:49:21;;;;;;;6.32;2.75;;;;;;;24.13;52.52;100505.25;5099303;28;20123;-64
2022/06/07 11:51:57;;;;;;;13.70;3.33;;;;;;;24.11;52.18;100499.25;5102422;28;20556;-64
2022/06/07 11:54:53;;;;;;;16.48;2.88;;;;;;;24.05;51.62;100507.03;5108581;28;20043;-64
2022/06/07 11:57:32;;;;;;;16.75;2.97;;;;;;;24.03;52.66;100492.72;5093092;28;20048;-64
2022/06/07 12:00:20;;;;;;;10.50;3.35;;;;;;;24.14;53.37;100500.50;5100873;28;20043;-64
2022/06/07 12:03:02;;;;;;;56.88;5.55;;;;;;;24.01;53.62;100497.84;5108113;28;20035;-65
2022/06/07 12:05:37;;;;;;;10.07;3.60;;;;;;;23.94;54.00;100494.09;5100558;28;20062;-66
2022/06/07 12:08:28;;;;;;;13.48;4.10;;;;;;;23.89;54.19;100500.75;5079695;28;20382;-64
2022/06/07 12:11:32;;;;;;;10.55;3.92;;;;;;;23.87;54.28;100502.25;5096007;28;20031;-65